Home > Products > Valid Products > TAF

000
FTUS45 KTFX 202300
TAFHLN
TAF
KHLN 202321Z 2100/2124 30015G25KT P6SM SKC
     FM210300 VRB05KT P6SM SCT250=



000
FTUS45 KTFX 202300
TAFLWT
TAF
KLWT 202321Z 2100/2124 30015G25KT P6SM SKC
     FM210200 28010KT P6SM SCT250
     FM211000 VRB05KT P6SM SCT250=



000
FTUS45 KTFX 202300
TAFGTF
TAF
KGTF 202321Z 2100/2124 30010G20KT P6SM SKC
     FM210200 22010KT P6SM SCT250=



000
FTUS45 KTFX 202300
TAFBZN
TAF
KBZN 202321Z 2100/2124 28010KT P6SM SCT200
     FM210500 VRB05KT P6SM SKC
     FM212000 20010KT P6SM SCT100=



000
FTUS45 KTFX 202300
TAFHVR
TAF
KHVR 202321Z 2100/2124 28015G25KT P6SM SKC
     FM210200 26010KT P6SM SKC
     FM210700 22006KT P6SM SCT250=



000
FTUS45 KTFX 202300
TAFCTB
TAF
KCTB 202321Z 2100/2124 27020G30KT P6SM SKC
     FM210300 27010KT P6SM SCT250
     FM211800 22010G20KT P6SM BKN150=



000
FTUS45 KTFX 201700 CCA
TAFBZN
TAF COR
KBZN 201752Z 2018/2118 28010G18KT P6SM SKC
     FM210300 15005KT P6SM SCT250=



000
FTUS45 KTFX 201700
TAFGTF
TAF
KGTF 201720Z 2018/2118 27025G35KT P6SM SKC
     FM202100 27020G28KT P6SM SKC
     FM210200 22008KT P6SM SCT250=



000
FTUS45 KTFX 201700
TAFHLN
TAF
KHLN 201720Z 2018/2118 28020G28KT P6SM SKC
     FM210100 28012KT P6SM SCT250
     FM210600 VRB03KT P6SM SCT250=



000
FTUS45 KTFX 201700
TAFBZN
TAF
KBZN 201720Z 2018/2118 28010KT P6SM SKC
     FM210300 15005KT P6SM SCT250=



000
FTUS45 KTFX 201700
TAFLWT
TAF
KLWT 201720Z 2018/2118 28022G30KT P6SM SKC
     FM210200 28006KT P6SM SCT250
     FM211200 15005KT P6SM SCT250=



000
FTUS45 KTFX 201700
TAFCTB
TAF
KCTB 201720Z 2018/2118 27030G38KT P6SM SKC
     FM202100 27020G30KT P6SM SKC
     FM210100 26008KT P6SM SCT250
     FM211600 17008KT P6SM BKN150=



000
FTUS45 KTFX 201700
TAFHVR
TAF
KHVR 201720Z 2018/2118 28025G35KT P6SM SKC
     FM210200 29010KT P6SM SKC
     FM210700 22006KT P6SM SCT250=



000
FTUS45 KTFX 201100
TAFBZN
TAF
KBZN 201124Z 2012/2112 30006KT P6SM BKN120
     FM201400 28008KT P6SM SCT120
     FM202000 29012KT P6SM SKC
     FM210300 15005KT P6SM BKN250=



000
FTUS45 KTFX 201100
TAFCTB
TAF
KCTB 201124Z 2012/2112 27030G40KT P6SM SKC
     FM202300 27020G30KT P6SM SCT120 BKN250
     FM210700 26008KT P6SM SKC=



000
FTUS45 KTFX 201100
TAFHLN
TAF
KHLN 201124Z 2012/2112 28012G20KT P6SM BKN100
     FM201400 28020G28KT P6SM SCT070
     FM202100 28018G25KT P6SM SKC
     FM210100 28012KT P6SM BKN250
     FM210800 VRB03KT P6SM BKN250=



000
FTUS45 KTFX 201100
TAFHVR
TAF
KHVR 201124Z 2012/2112 24015KT P6SM SKC
     FM201500 27025G32KT P6SM SKC
     FM202200 29018G25KT P6SM SCT090
     FM210200 27008KT P6SM SCT100 BKN250
     FM210700 22006KT P6SM SKC=



000
FTUS45 KTFX 201100
TAFGTF
TAF
KGTF 201124Z 2012/2112 25016G22KT P6SM SKC
     FM201500 27027G35KT P6SM SKC
     FM202300 27016KT P6SM SKC
     FM210200 23010KT P6SM SCT120 BKN250=



000
FTUS45 KTFX 201100
TAFLWT
TAF
KLWT 201124Z 2012/2112 26010KT P6SM BKN120
     FM201400 28022G30KT P6SM SKC
     FM210000 30015KT P6SM SKC
     FM210200 28006KT P6SM BKN250
     FM211000 15005KT P6SM SKC=



000
FTUS45 KTFX 201000 AAB
TAFCTB
TAF AMD
KCTB 201011Z 2010/2106 25022G32KT P6SM SCT140
     FM201300 26030G40KT P6SM SCT140=



000
FTUS45 KTFX 200800 AAA
TAFHLN
TAF AMD
KHLN 200803Z 2008/2106 28015G25KT P6SM SCT040 BKN100
     FM201100 27015G25KT P6SM FEW140
     FM201800 28020G30KT P6SM SKC=



000
FTUS45 KTFX 200700 AAA
TAFCTB
TAF AMD
KCTB 200705Z 2007/2106 25028G38KT P6SM BKN080
     FM201300 26030G40KT P6SM SCT140
      TEMPO 2013/2016 26040G50KT=



000
FTUS45 KTFX 200500
TAFHVR
TAF
KHVR 200520Z 2006/2106 VRB05KT P6SM BKN080
     FM201100 26020G30KT P6SM SCT140
      TEMPO 2015/2018 26040G50KT
     FM201800 28020G30KT P6SM SKC=



000
FTUS45 KTFX 200500
TAFHLN
TAF
KHLN 200520Z 2006/2106 VRB05KT P6SM SCT080 SCT200
     FM200700 27010KT P6SM SCT040 BKN100
     FM201100 27015G25KT P6SM FEW140
     FM201800 28020G30KT P6SM SKC=



000
FTUS45 KTFX 200500
TAFBZN
TAF
KBZN 200520Z 2006/2106 16010KT P6SM BKN140
     FM200900 22010KT P6SM SCT050 BKN080
     FM201500 30010KT P6SM FEW120=



000
FTUS45 KTFX 200500
TAFCTB
TAF
KCTB 200520Z 2006/2106 25010KT P6SM FEW200
     FM200800 25020G30KT P6SM BKN080
     FM201300 26030G40KT P6SM SCT140
      TEMPO 2013/2016 26040G50KT=



000
FTUS45 KTFX 200500
TAFLWT
TAF
KLWT 200520Z 2006/2106 VRB05KT P6SM SCT200
     FM201000 27015G25KT P6SM SCT040 BKN080
     FM201500 28020G30KT P6SM SCT140=



000
FTUS45 KTFX 200500
TAFGTF
TAF
KGTF 200520Z 2006/2106 VRB05KT P6SM SCT200
     FM200700 26020G30KT P6SM SCT080 BKN120
     FM201400 24030G40KT P6SM FEW200=



000
FTUS45 KTFX 200200 AAA
TAFGTF
TAF AMD
KGTF 200200Z 2002/2024 VRB05KT P6SM SCT200
     FM200700 26020G30KT P6SM SCT080 BKN120
     FM201400 24030G40KT P6SM FEW200=



000
FTUS45 KTFX 192300
TAFGTF
TAF
KGTF 192330Z 2000/2024 24015G25KT P6SM SCT200
     FM200700 26020G30KT P6SM SCT080 BKN120
     FM201400 24030G40KT P6SM FEW200=



000
FTUS45 KTFX 192300
TAFHLN
TAF
KHLN 192330Z 2000/2024 VRB05KT P6SM SCT080 SCT200
     FM200700 27010KT P6SM SCT040 BKN100
     FM201100 27015G25KT P6SM FEW140
     FM201800 28020G30KT P6SM SKC=



000
FTUS45 KTFX 192300
TAFHVR
TAF
KHVR 192330Z 2000/2024 24010KT P6SM FEW200
     FM200200 VRB05KT P6SM BKN080
     FM201100 26020G30KT P6SM SCT140
      TEMPO 2015/2018 26040G50KT
     FM201800 28020G30KT P6SM SKC=



000
FTUS45 KTFX 192300
TAFBZN
TAF
KBZN 192330Z 2000/2024 VRB05KT P6SM SCT200
     FM200400 16008KT P6SM BKN140
     FM200900 22010KT P6SM SCT050 BKN080
     FM201500 30010KT P6SM FEW120=



000
FTUS45 KTFX 192300
TAFCTB
TAF
KCTB 192330Z 2000/2024 25010KT P6SM FEW200
     FM200800 25020G30KT P6SM BKN080
     FM201300 26030G40KT P6SM SCT140
      TEMPO 2013/2016 26040G50KT=



000
FTUS45 KTFX 192300
TAFLWT
TAF
KLWT 192330Z 2000/2024 VRB05KT P6SM SCT200
     FM201000 27015G25KT P6SM SCT040 BKN080
     FM201500 28020G30KT P6SM SCT140=



000
FTUS45 KTFX 191700
TAFGTF
TAF
KGTF 191730Z 1918/2018 23015G25KT P6SM SCT200
     FM200700 26022G32KT P6SM SCT080 BKN120
     FM201400 24030G40KT P6SM FEW200=



000
FTUS45 KTFX 191700
TAFLWT
TAF
KLWT 191730Z 1918/2018 25012G20KT P6SM SCT200
     FM200100 20008KT P6SM SCT140
     FM200800 29022G32KT P6SM SCT040 BKN080
     FM201300 27025G26KT P6SM SCT140=



000
FTUS45 KTFX 191700
TAFHVR
TAF
KHVR 191730Z 1918/2018 25015G22KT P6SM SCT200
     FM200100 22010KT P6SM FEW200
     FM200800 28022G32KT P6SM BKN080
     FM201500 26030G40KT P6SM SCT140=



000
FTUS45 KTFX 191700
TAFCTB
TAF
KCTB 191730Z 1918/2018 24016G24KT P6SM SCT100 BKN200
     FM200400 26012G20KT P6SM BKN100
     FM200800 26030G40KT P6SM SKC
     FM201400 26040G50KT P6SM FEW200=



000
FTUS45 KTFX 191700
TAFHLN
TAF
KHLN 191730Z 1918/2018 25010KT P6SM SCT080 SCT200
      TEMPO 1920/1924 25012G20KT
     FM200700 28020G28KT P6SM VCSH SCT040 BKN080
     FM201400 27020G28KT P6SM FEW140=



000
FTUS45 KTFX 191700
TAFBZN
TAF
KBZN 191730Z 1918/2018 25011KT P6SM FEW080 SCT200
     FM200400 16008KT P6SM BKN140
     FM200900 23011KT P6SM SCT050 BKN080
     FM201500 28009KT P6SM FEW120=



000
FTUS45 KTFX 191100
TAFGTF
TAF
KGTF 191124Z 1912/2012 23012KT P6SM SKC
     FM191800 23015G25KT P6SM SCT200
     FM200700 26022G32KT P6SM SCT080 BKN120=



000
FTUS45 KTFX 191100
TAFHLN
TAF
KHLN 191124Z 1912/2012 VRB06KT P6SM SKC
     FM191900 25012G20KT P6SM SCT080 SCT200
     FM200700 28020G28KT P6SM VCSH SCT040 BKN080=



000
FTUS45 KTFX 191100
TAFHVR
TAF
KHVR 191124Z 1912/2012 28011KT P6SM BKN080
     FM191400 25011KT P6SM SKC
     FM191900 25015G22KT P6SM SCT200
     FM200800 28022G32KT P6SM BKN080=



000
FTUS45 KTFX 191100
TAFCTB
TAF
KCTB 191124Z 1912/2012 26015KT P6SM SKC
     FM191800 24018G26KT P6SM SCT100 BKN200
     FM200600 26028G38KT P6SM BKN100
     FM201000 26030G40KT P6SM SKC=



000
FTUS45 KTFX 191100
TAFLWT
TAF
KLWT 191124Z 1912/2012 24011KT P6SM FEW080
     FM191900 25012G20KT P6SM SCT200
     FM200800 29022G32KT P6SM SCT040 BKN080=



000
FTUS45 KTFX 191100
TAFBZN
TAF
KBZN 191124Z 1912/2012 VRB06KT P6SM FEW120
     FM191900 25011KT P6SM FEW080 SCT200
     FM200900 30011KT P6SM SCT050 BKN080=



000
FTUS45 KTFX 190500
TAFCTB
TAF
KCTB 190520Z 1906/2006 27020G30KT P6SM SCT060 BKN100
     FM190800 27017KT P6SM SCT080
     FM191000 25011KT P6SM SKC
     FM191800 24017G28KT P6SM SCT100 BKN200=



000
FTUS45 KTFX 190500
TAFHLN
TAF
KHLN 190520Z 1906/2006 26010KT P6SM SKC
     FM191900 28010G20KT P6SM SCT080 BKN200=



000
FTUS45 KTFX 190500
TAFGTF
TAF
KGTF 190520Z 1906/2006 23015KT P6SM SCT100
     FM190800 21011KT P6SM SKC
     FM191800 23013G24KT P6SM SCT100 BKN200=



000
FTUS45 KTFX 190500
TAFBZN
TAF
KBZN 190520Z 1906/2006 VRB06KT P6SM SKC
     FM191900 25011KT P6SM SCT080 BKN200=



000
FTUS45 KTFX 190500
TAFLWT
TAF
KLWT 190520Z 1906/2006 24011KT P6SM SKC
     FM191900 28010G20KT P6SM SCT100 BKN200=



000
FTUS45 KTFX 190500
TAFHVR
TAF
KHVR 190520Z 1906/2006 28017G27KT P6SM VCSH SCT030 OVC050
     FM190800 26018KT P6SM SCT050 BKN080
     FM191000 25011KT P6SM SKC
     FM191900 25010G20KT P6SM SCT100 BKN200=



000
FTUS45 KTFX 190400 AAA
TAFHLN
TAF AMD
KHLN 190410Z 1904/1924 27017G28KT P6SM SCT070
      TEMPO 1904/1906 27011KT
     FM190600 26010KT P6SM SCT070
     FM191900 27010G20KT P6SM SCT040 BKN070=



000
FTUS45 KTFX 190300 AAB
TAFLWT
TAF AMD
KLWT 190347Z 1904/1924 25011KT P6SM SKC=



000
FTUS45 KTFX 190300 AAA
TAFCTB
TAF AMD
KCTB 190346Z 1904/1924 27022G34KT P6SM SCT035 BKN060
     FM190600 27020KT P6SM SCT080
     FM191000 26010KT P6SM SKC
     FM191800 24017G28KT P6SM SCT110=



000
FTUS45 KTFX 190300 AAA
TAFBZN
TAF AMD
KBZN 190345Z 1904/1924 VRB06KT P6SM SCT070
     FM191900 26011KT P6SM SCT050 BKN080=



000
FTUS45 KTFX 190000 AAA
TAFLWT
TAF AMD
KLWT 190058Z 1901/1924 28020G30KT P6SM SCT070 BKN110
     FM190600 25011KT P6SM SKC=



000
FTUS45 KTFX 182300
TAFGTF
TAF
KGTF 182328Z 1900/1924 25025G35KT P6SM SCT060 BKN100
     FM190400 23018KT P6SM SCT100
     FM190800 21011KT P6SM SKC
     FM191800 22013G25KT P6SM SCT110=



000
FTUS45 KTFX 182300
TAFHLN
TAF
KHLN 182328Z 1900/1924 29017G28KT P6SM SCT050 BKN080
     FM190400 26010KT P6SM SCT070
     FM191900 27010G20KT P6SM SCT040 BKN070=



000
FTUS45 KTFX 182300
TAFBZN
TAF
KBZN 182328Z 1900/1924 29018G30KT P6SM SCT040 BKN070
      TEMPO 1900/1902 30028G40KT
     FM190400 VRB06KT P6SM SCT070
     FM191900 26011KT P6SM SCT050 BKN080=



000
FTUS45 KTFX 182300
TAFCTB
TAF
KCTB 182328Z 1900/1924 26030G40KT P6SM SCT060 BKN100
     FM190200 28022G34KT P6SM SCT035 BKN060
     FM190600 27020KT P6SM SCT080
     FM191000 26010KT P6SM SKC
     FM191800 24017G28KT P6SM SCT110=



000
FTUS45 KTFX 182300
TAFHVR
TAF
KHVR 182328Z 1900/1924 27020G32KT P6SM SCT070 BKN110
     FM190200 29022G34KT P6SM VCSH SCT030 OVC050
     FM190800 26020KT P6SM SCT050 BKN080
     FM191200 25011KT P6SM SKC=



000
FTUS45 KTFX 182300
TAFLWT
TAF
KLWT 182328Z 1900/1924 28015G25KT P6SM SCT070 BKN110
      TEMPO 1900/1902 VRB06KT
     FM190600 25011KT P6SM SKC=



000
FTUS45 KTFX 182200 AAA
TAFHLN
TAF AMD
KHLN 182200Z 1822/1918 27020G30KT P6SM VCSH SCT050 BKN080
      TEMPO 1822/1824 30030G40KT
     FM190000 27015G25KT P6SM SCT070
     FM190500 26010KT P6SM SKC=



000
FTUS45 KTFX 182100 AAA
TAFLWT
TAF AMD
KLWT 182158Z 1822/1918 28015G25KT P6SM VCTS SCT040CB BKN080
      TEMPO 1822/1823 VRB25G40KT -SHRA BKN025CB
     FM190000 27015KT P6SM SCT070
     FM190800 26010KT P6SM SKC=



000
FTUS45 KTFX 182100 AAA
TAFBZN
TAF AMD
KBZN 182121Z 1821/1918 26015G25KT P6SM VCSH SCT060 BKN100
      TEMPO 1821/1823 30023G35KT
     FM190300 28010KT P6SM SKC=



000
FTUS45 KTFX 181700
TAFCTB
TAF
KCTB 181739Z 1818/1918 26030G40KT P6SM SCT050 SCT120
      TEMPO 1820/1824 25045G55KT
     FM190800 28015KT P6SM SCT120
     FM191200 26010KT P6SM SKC=



000
FTUS45 KTFX 181700
TAFGTF
TAF
KGTF 181739Z 1818/1918 24020G30KT P6SM SCT060 SCT100
      TEMPO 1820/1824 24032G40KT
     FM190300 24015KT P6SM SKC
     FM191000 22010KT P6SM SKC=



000
FTUS45 KTFX 181700
TAFHLN
TAF
KHLN 181739Z 1818/1918 27020G30KT P6SM SCT060
      TEMPO 1821/1824 27030G40KT P6SM
     FM190500 26010KT P6SM SKC
     FM190900 25005KT P6SM SKC=



000
FTUS45 KTFX 181700
TAFLWT
TAF
KLWT 181739Z 1818/1918 26010KT P6SM VCSH BKN060 OVC080
     FM182000 28015G25KT P6SM SCT060 BKN080
     FM190800 26010KT P6SM SKC=



000
FTUS45 KTFX 181700
TAFHVR
TAF
KHVR 181739Z 1818/1918 26020G30KT P6SM VCSH BKN060 OVC100
     FM190800 26015KT P6SM SCT060
     FM191200 26010KT P6SM SKC=



000
FTUS45 KTFX 181700
TAFBZN
TAF
KBZN 181739Z 1818/1918 26010KT P6SM BKN060
     FM182000 26015G25KT P6SM VCSH BKN060
     FM190300 28010KT P6SM SKC=



000
FTUS45 KTFX 181100 AAA
TAFLWT
TAF AMD
KLWT 181138Z 1812/1912 VRB06KT P6SM OVC050
      TEMPO 1812/1815 -SHRA BKN025 OVC040
     FM181500 26012KT P6SM SCT050 BKN080
     FM182000 28020G30KT P6SM VCSH SCT050 BKN080
     FM182200 28025G32KT P6SM SCT060 SCT090
     FM190200 28016KT P6SM SKC
     FM191000 22006KT P6SM SCT250=



000
FTUS45 KTFX 181100
TAFHVR
TAF
KHVR 181132Z 1812/1912 VRB06KT P6SM -RA OVC050
     FM181300 23011KT P6SM BKN080
     FM181800 25024G30KT P6SM SCT060 SCT090
     FM182100 26030G38KT P6SM SCT060 BKN090
     FM190300 26025G32KT P6SM VCSH BKN060
     FM191000 24010KT P6SM SCT060=



000
FTUS45 KTFX 181100
TAFGTF
TAF
KGTF 181132Z 1812/1912 20010KT P6SM VCSH BKN090
     FM181300 23015KT P6SM SCT060 BKN090
     FM181700 23025G35KT P6SM SCT060 SCT100
     FM181900 24032G40KT P6SM SCT060
     FM190300 24017KT P6SM SKC
     FM191000 22010KT P6SM SCT250=



000
FTUS45 KTFX 181100
TAFBZN
TAF
KBZN 181132Z 1812/1912 VRB06KT P6SM SCT040 OVC060
      TEMPO 1812/1816 -SHRA BKN030
     FM181600 26010KT P6SM BKN060
     FM182000 29018G25KT P6SM VCSH BKN060
     FM190100 31006KT P6SM SKC
     FM190500 VRB06KT P6SM SKC=



000
FTUS45 KTFX 181100
TAFHLN
TAF
KHLN 181132Z 1812/1912 VRB06KT P6SM VCSH BKN080
     FM181300 27010KT P6SM BKN080
     FM181800 28028G35KT P6SM SCT060
     FM190200 28012KT P6SM SKC
     FM190900 VRB03KT P6SM SCT140=



000
FTUS45 KTFX 181100
TAFCTB
TAF
KCTB 181132Z 1812/1912 24013KT P6SM BKN100
     FM181400 24020G28KT P6SM SCT050
     FM181800 25038G48KT P6SM SCT050 SCT120
      TEMPO 1819/1823 25045G55KT
     FM190500 27020G30KT P6SM SCT120
     FM191100 26008KT P6SM SCT250=



000
FTUS45 KTFX 181100
TAFLWT
TAF
KLWT 181132Z 1812/1912 VRB06KT P6SM -RA OVC050
      TEMPO 1812/1815 -RA BKN025 OVC040
     FM181500 26012KT P6SM SCT050 BKN080
     FM182000 28020G30KT P6SM VCSH SCT050 BKN080
     FM182200 28025G32KT P6SM SCT060 SCT090
     FM190200 28016KT P6SM SKC
     FM191000 22006KT P6SM SCT250=



000
FTUS45 KTFX 180500
TAFLWT
TAF
KLWT 180520Z 1806/1906 13008KT P6SM VCSH SCT040 OVC070
      TEMPO 1808/1811 -SHRA BKN035
     FM181100 24010KT P6SM VCSH SCT035 OVC060
      TEMPO 1811/1815 -SHRA BKN025
     FM181500 26014G24KT P6SM VCSH SCT040 BKN070
     FM181900 29020G32KT P6SM SCT050 BKN080
     FM190200 28015G25KT P6SM SCT080=



000
FTUS45 KTFX 180500
TAFBZN
TAF
KBZN 180520Z 1806/1906 13007KT P6SM SCT060 BKN090
     FM180900 25010KT P6SM VCSH SCT040 OVC070
      TEMPO 1812/1816 -SHRA BKN025
     FM181900 29017G28KT P6SM VCSH SCT040 BKN070
     FM190200 28011KT P6SM SCT070=



000
FTUS45 KTFX 180500
TAFHVR
TAF
KHVR 180520Z 1806/1906 11010KT P6SM VCSH SCT040 OVC070
      TEMPO 1808/1811 -SHRA BKN035
     FM181100 21010KT P6SM VCSH SCT035 OVC060
      TEMPO 1811/1814 -SHRA BKN030
     FM181500 24017G28KT P6SM SCT060 BKN090
     FM181900 26025G40KT P6SM SCT090
     FM190100 28018G30KT P6SM SCT050 BKN080=



000
FTUS45 KTFX 180500
TAFCTB
TAF
KCTB 180520Z 1806/1906 24011KT P6SM VCSH SCT050 OVC080
      TEMPO 1807/1811 -SHRA BKN040
     FM181400 25018G30KT P6SM SCT080 BKN180
     FM181800 25033G47KT P6SM SCT100
     FM190200 28025G40KT P6SM SKC=



000
FTUS45 KTFX 180500
TAFHLN
TAF
KHLN 180520Z 1806/1906 27011KT P6SM VCSH SCT035 OVC060
      TEMPO 1808/1811 -SHRA BKN030
     FM181100 27010G20KT P6SM VCSH SCT030 OVC050
      TEMPO 1811/1814 -SHRA BKN025
     FM181800 27020G32KT P6SM SCT040 BKN070
     FM190200 28015KT P6SM SCT080=



000
FTUS45 KTFX 180500
TAFGTF
TAF
KGTF 180520Z 1806/1906 22011KT P6SM VCSH SCT040 OVC070
      TEMPO 1807/1811 -SHRA BKN035
     FM181400 23017G28KT P6SM SCT050 BKN080
     FM181800 24025G40KT P6SM SCT080
     FM190200 25017G28KT P6SM SKC=



    US Dept of Commerce
    National Oceanic and Atmospheric Administration
    National Weather Service
    1325 East West Highway
    Silver Spring, MD 20910
    Page Author: NWS Internet Services Team
Disclaimer
Information Quality
Credits
Glossary
Privacy Policy
Freedom of Information Act (FOIA)
About Us
Career Opportunities